Latest Coastal Weather Observations for Gabo Island

IDT60701

Issued at 6:42 am EDT Saturday 3 December 2016 (issued every 10 minutes, with the page automatically refreshed every 10 minutes)

About coastal observations | Map of coastal stations | Coastal observations for TAS | Marine services | Other Formats
Station Details ID: 084016 Name: GABO ISLAND LIGHTHOUSE Lat: -37.57 Lon: 149.92 Height: 15.2 m
Data from the previous 72 hours. | See also: Recent months at Gabo Island
Date/Time
EDT
Temp
°C
Wind Pressure Rain since
9am
mm
Weather Cloud Vis
km
Sea
Height
m
Swell
Dir  Spd
kts
Gust
kts
hPa Trend Height
m
Period
s
Dir
03/06:30am 15.7 SSW 10 11 1015.9 - 0.0 - - - - - - -
03/06:00am 15.7 SW 10 12 1015.6 - 0.0 - - - - - - -
03/05:30am 15.7 SW 11 13 1015.3 - 0.0 - - - - - - -
03/05:00am 15.7 SW 11 13 1015.0 - 0.0 - - - - - - -
03/04:30am 15.8 SW 12 14 1015.0 - 0.0 - - - - - - -
03/04:00am 15.8 SW 12 14 1015.1 - 0.0 - - - - - - -
03/03:30am 16.0 SW 12 15 1015.1 - 0.0 - - - - - - -
03/03:00am 16.1 SW 13 15 1015.2 - 0.0 Fine Cloudy 25 1 1.0 - -
03/02:30am 16.2 SW 12 14 1015.4 - 0.0 - - - - - - -
03/02:00am 16.2 SW 13 16 1015.6 - 0.0 - - - - - - -
03/01:30am 16.3 SW 13 15 1015.7 - 0.0 - - - - - - -
03/01:00am 16.4 SW 13 16 1015.8 - 0.0 - - - - - - -
03/12:30am 16.4 WSW 11 14 1015.9 - 0.0 - - - - - - -
03/12:00am 16.3 WSW 11 14 1015.9 - 0.0 - - - - - - -
 
Date/Time
EDT
Temp
°C
Wind Pressure Rain since
9am
mm
Weather Cloud Vis
km
Sea
Height
m
Swell
Dir  Spd
kts
Gust
kts
hPa Trend Height
m
Period
s
Dir
02/11:30pm 16.4 WSW 11 14 1015.6 - 0.0 - - - - - - -
02/11:00pm 16.6 WSW 13 17 1015.6 - 0.0 - - - - - - -
02/10:30pm 16.7 SW 15 17 1015.3 - 0.0 - - - - - - -
02/10:00pm 16.8 SW 14 17 1015.6 - 0.0 - - - - - - -
02/09:30pm 16.8 SW 14 17 1015.3 - 0.0 - - - - - - -
02/09:00pm 16.9 SW 13 15 1014.9 - 0.0 Fine Cloudy 25 1 1.0 - -
02/08:30pm 17.0 SW 14 16 1014.6 - 0.0 - - - - - - -
02/08:00pm 17.1 SW 16 18 1014.2 - 0.0 - - - - - - -
02/07:30pm 17.1 SW 16 18 1013.6 - 0.0 - - - - - - -
02/07:00pm 17.2 SW 17 20 1013.2 - 0.0 - - - - - - -
02/06:30pm 17.5 SW 19 22 1012.8 - 0.0 - - - - - - -
02/06:00pm 17.6 SW 20 23 1012.4 - 0.0 - - - - - - -
02/05:30pm 17.8 SW 19 22 1012.1 - 0.0 - - - - - - -
02/05:00pm 17.8 SSW 18 20 1012.0 - 0.0 - - - - - - -
02/04:30pm 17.7 SSW 19 23 1012.0 - 0.0 - - - - - - -
02/04:00pm 17.6 SSW 19 22 1011.6 - 0.0 - - - - - - -
02/03:30pm 17.4 SSW 19 22 1011.7 - 0.0 - - - - - - -
02/03:00pm 17.7 SSW 16 19 1011.4 - 0.0 Fine Cloudy 25 1 1.0 - -
02/02:30pm 17.5 SSW 17 20 1011.0 - 0.0 - - - - - - -
02/02:00pm 17.4 SSW 19 21 1010.8 - 0.0 - - - - - - -
02/01:30pm 17.4 SSW 22 25 1010.5 - 0.0 - - - - - - -
02/01:00pm 17.8 SW 21 25 1010.1 - 0.0 - - - - - - -
02/12:30pm 18.1 SW 22 25 1009.8 - 0.0 - - - - - - -
02/12:00pm 18.2 SW 18 23 1010.0 - 0.0 - - - - - - -
02/11:30am 18.1 SW 19 23 1009.8 - 0.0 - - - - - - -
02/11:00am 17.1 SW 19 23 1009.7 - 0.0 - - - - - - -
02/10:30am 17.0 SW 20 23 1009.3 - 0.0 - - - - - - -
02/10:00am 17.2 SW 18 21 1008.7 - 0.0 - - - - - - -
02/09:30am 18.3 W 10 11 1008.4 - 0.0 - - - - - - -
02/09:00am 16.9 W 10 13 1008.0 - 0.2 Fog patches - 10 <0.5 1.0 - -
02/08:30am 16.0 WNW 8 11 1007.8 - 0.2 - - - - - - -
02/08:00am 16.0 W 8 10 1007.7 - 0.2 - - - - - - -
02/07:30am 15.6 W 7 9 1007.4 - 0.2 - - - - - - -
02/07:00am 15.3 W 8 10 1007.3 - 0.2 - - - - - - -
02/06:30am 15.2 W 9 11 1007.1 - 0.2 - - - - - - -
02/06:00am 15.3 W 9 11 1006.9 - 0.2 - - - - - - -
02/05:30am 14.8 WNW 6 7 1006.3 - 0.2 - - - - - - -
02/05:00am 14.9 WNW 6 8 1006.2 - 0.2 - - - - - - -
02/04:30am 15.0 NW 5 6 1006.0 - 0.2 - - - - - - -
02/04:00am 14.9 N 3 4 1006.0 - 0.2 - - - - - - -
02/03:30am 14.8 NNE 5 6 1005.8 - 0.2 - - - - - - -
02/03:00am 15.2 NE 7 8 1005.8 - 0.2 Fine Clear 20 <0.5 1.0 - -
02/02:30am 15.7 N 6 8 1005.9 - 0.2 - - - - - - -
02/02:00am 16.2 N 8 10 1006.0 - 0.2 - - - - - - -
02/01:30am 16.1 N 9 11 1006.4 - 0.2 - - - - - - -
02/01:00am 14.7 N 3 4 1006.5 - 0.2 - - - - - - -
02/12:30am 14.7 NNE 5 6 1006.6 - 0.2 - - - - - - -
02/12:00am 14.9 N 5 6 1007.1 - 0.2 - - - - - - -
 
Date/Time
EDT
Temp
°C
Wind Pressure Rain since
9am
mm
Weather Cloud Vis
km
Sea
Height
m
Swell
Dir  Spd
kts
Gust
kts
hPa Trend Height
m
Period
s
Dir
01/11:30pm 15.4 NNE 4 6 1007.1 - 0.2 - - - - - - -
01/11:00pm 16.1 NNE 5 6 1007.3 - 0.2 - - - - - - -
01/10:30pm 16.0 NE 4 5 1007.6 - 0.2 - - - - - - -
01/10:00pm 14.9 N 5 6 1007.7 - 0.2 - - - - - - -
01/09:30pm 15.6 NE 3 4 1007.6 - 0.2 - - - - - - -
01/09:00pm 16.1 NNE 3 4 1007.4 - 0.2 Fine Mostly cloudy 20 <0.5 1.0 - -
01/08:30pm 16.5 NNE 4 5 1007.2 - 0.2 - - - - - - -
01/08:00pm 16.8 NE 4 4 1007.2 - 0.2 - - - - - - -
01/07:30pm 17.0 SSW 1 4 1007.1 - 0.2 - - - - - - -
01/07:00pm 18.2 SSW 3 4 1007.0 - 0.2 - - - - - - -
01/06:30pm 18.0 S 3 4 1006.8 - 0.2 - - - - - - -
01/06:00pm 18.2 S 5 7 1006.5 - 0.2 - - - - - - -
01/05:30pm 18.6 SSW 6 7 1006.6 - 0.2 - - - - - - -
01/05:00pm 19.1 SSW 6 7 1006.8 - 0.2 - - - - - - -
01/04:30pm 19.2 S 7 8 1006.6 - 0.2 - - - - - - -
01/04:00pm 19.5 S 7 8 1006.6 - 0.2 - - - - - - -
01/03:30pm 18.9 SSW 8 9 1006.8 - 0.2 - - - - - - -
01/03:00pm 19.0 SSW 7 8 1007.0 - 0.2 Fine Partly cloudy 20 1 1.0 - -
01/02:30pm 19.0 SSW 12 15 1007.0 - 0.2 - - - - - - -
01/02:00pm 18.9 SSW 13 16 1007.0 - 0.2 - - - - - - -
01/01:30pm 18.5 SSW 16 18 1007.0 - 0.2 - - - - - - -
01/01:00pm 18.3 SSW 17 19 1007.0 - 0.2 - - - - - - -
01/12:30pm 18.1 SSW 15 18 1007.2 - 0.2 - - - - - - -
01/12:00pm 17.7 SSW 16 18 1007.3 - 0.0 - - - - - - -
01/11:30am 17.9 SSW 14 16 1007.4 - 0.0 - - - - - - -
01/11:00am 17.9 SSW 12 14 1007.4 - 0.0 - - - - - - -
01/10:30am 17.6 SSW 10 12 1007.4 - 0.0 - - - - - - -
01/10:00am 17.7 SW 8 9 1007.4 - 0.0 - - - - - - -
01/09:30am 17.7 SW 9 11 1007.5 - 0.0 - - - - - - -
01/09:00am 17.2 SW 8 9 1007.7 - 26.2 Fine Mostly cloudy 20 1 1.0 - -
01/08:30am 17.1 WSW 8 9 1007.8 - 26.2 - - - - - - -
01/08:00am 17.0 WSW 8 9 1007.6 - 26.2 - - - - - - -
01/07:30am 17.0 WSW 5 6 1007.5 - 26.2 - - - - - - -
01/07:00am 16.6 W 6 7 1007.5 - 26.2 - - - - - - -
01/06:30am 16.6 WSW 4 6 1007.2 - 26.2 - - - - - - -
01/06:00am 16.2 W 8 10 1007.3 - 26.2 Recent precip. - - - - - -
01/05:30am 15.8 WSW 8 10 1007.2 - 26.2 - - - - - - -
01/05:00am 16.2 WSW 9 11 1007.2 - 26.0 - - - - - - -
01/04:30am 16.6 SW 9 11 1007.0 - 25.8 - - - - - - -
01/04:00am 16.4 SW 11 13 1006.7 - 25.2 - - - - - - -
01/03:30am 16.3 SSW 13 15 1006.7 - 24.2 - - - - - - -
01/03:00am 17.7 NW 5 10 1006.8 - 22.6 Showers Cloudy 10 1 1.0 - -
01/02:30am 18.5 N 2 6 1007.0 - 19.6 - - - - - - -
01/02:00am 18.6 N 5 7 1007.5 - 7.6 - - - - - - -
01/01:30am 18.4 N 6 8 1007.8 - 0.6 - - - - - - -
01/01:00am 18.1 NE 15 19 1007.8 - 0.0 - - - - - - -
01/12:30am 18.4 NE 18 22 1008.0 - 0.0 - - - - - - -
01/12:00am 18.2 NE 20 24 1007.8 - 0.0 - - - - - - -
 
Date/Time
EDT
Temp
°C
Wind Pressure Rain since
9am
mm
Weather Cloud Vis
km
Sea
Height
m
Swell
Dir  Spd
kts
Gust
kts
hPa Trend Height
m
Period
s
Dir
30/11:30pm 18.2 NE 21 23 1008.0 - 0.0 - - - - - - -
30/11:00pm 18.1 NE 20 24 1008.2 - 0.0 - - - - - - -
30/10:30pm 17.9 NE 22 26 1008.1 - 0.0 - - - - - - -
30/10:00pm 18.0 NE 24 27 1007.9 - 0.0 - - - - - - -
30/09:30pm 17.8 NE 29 33 1007.1 - 0.0 - - - - - - -
30/09:00pm 18.0 ENE 23 27 1008.0 - 0.0 Distant precip. Cloudy 15 2 1.0 - -
30/08:30pm 17.8 NE 19 21 1009.2 - 0.0 - - - - - - -
30/08:00pm 18.2 NE 19 23 1009.1 - 0.0 - - - - - - -
30/07:30pm 18.2 NE 19 21 1008.8 - 0.0 - - - - - - -
30/07:00pm 18.5 NE 14 18 1008.6 - 0.0 - - - - - - -
30/06:30pm 18.8 NNE 15 18 1008.5 - 0.0 - - - - - - -
30/06:00pm 18.7 NE 26 33 1006.8 - 0.0 - - - - - - -
30/05:30pm 18.8 NE 27 34 1006.2 - 0.0 - - - - - - -
30/05:00pm 18.8 NE 29 35 1005.9 - 0.0 - - - - - - -
30/04:30pm 18.9 NE 26 31 1006.6 - 0.0 - - - - - - -
30/04:09pm 19.1 NE 25 35 1007.5 - 0.0 - - - - - - -
30/04:00pm 19.6 NE 30 35 1006.6 - 0.0 - - - - - - -
30/03:30pm 20.1 NE 30 37 1006.7 - 0.0 - - - - - - -
30/03:00pm 20.2 NE 30 38 1007.1 - 0.0 Fine Partly cloudy 15 2 2.0 - -
30/02:40pm 20.1 NE 30 43 1007.2 - 0.0 - - - - - - -
30/02:30pm 20.3 NE 31 39 1007.3 - 0.0 - - - - - - -
30/02:00pm 20.4 NE 30 37 1007.6 - 0.0 - - - - - - -
30/01:30pm 20.6 NE 27 32 1008.3 - 0.0 - - - - - - -
30/01:00pm 20.2 NE 27 34 1008.5 - 0.0 - - - - - - -
30/12:30pm 19.7 NE 28 34 1008.8 - 0.0 - - - - - - -
30/12:00pm 20.3 NE 26 33 1009.1 - 0.0 - - - - - - -
30/11:30am 20.4 NE 26 34 1009.4 - 0.0 - - - - - - -
30/11:00am 19.9 NE 25 31 1009.6 - 0.0 - - - - - - -
30/10:30am 19.8 NE 25 30 1009.9 - 0.0 - - - - - - -
30/10:00am 19.8 NE 22 29 1010.1 - 0.0 - - - - - - -
30/09:30am 19.5 NE 20 25 1010.4 - 0.0 - - - - - - -
30/09:00am 19.2 NE 16 21 1010.9 - 0.0 Fine Mostly clear 20 1 2.0 - -
30/08:30am 18.7 NNE 17 22 1010.9 - 0.0 - - - - - - -
30/08:00am 18.0 NNE 16 20 1011.0 - 0.0 - - - - - - -
30/07:30am 17.2 NNE 14 17 1011.1 - 0.0 - - - - - - -
30/07:00am 16.8 NNE 13 16 1011.0 - 0.0 - - - - - - -

Other Formats:

Comma delimited format used in spreadsheet applications
http://www.bom.gov.au/fwo/IDT60701/IDT60701.94933.axf

JavaScript Object Notation format (JSON) in row-major order
http://www.bom.gov.au/fwo/IDT60701/IDT60701.94933.json